sensor_id;sensor_type;location;lat;lon;timestamp;P1;durP1;ratioP1;P2;durP2;ratioP2
33357;SDS011;19717;42.614;23.418;2023-04-28T00:01:32;1.10;;;1.00;;
33357;SDS011;19717;42.614;23.418;2023-04-28T00:03:58;0.82;;;0.82;;
33357;SDS011;19717;42.614;23.418;2023-04-28T00:06:25;0.88;;;0.88;;
33357;SDS011;19717;42.614;23.418;2023-04-28T00:08:52;0.70;;;0.70;;
33357;SDS011;19717;42.614;23.418;2023-04-28T00:11:18;0.80;;;0.80;;
33357;SDS011;19717;42.614;23.418;2023-04-28T00:13:44;0.93;;;0.85;;
33357;SDS011;19717;42.614;23.418;2023-04-28T00:16:10;0.90;;;0.90;;
33357;SDS011;19717;42.614;23.418;2023-04-28T00:18:36;0.90;;;0.90;;
33357;SDS011;19717;42.614;23.418;2023-04-28T00:21:02;0.90;;;0.90;;
33357;SDS011;19717;42.614;23.418;2023-04-28T00:23:29;0.98;;;0.82;;
33357;SDS011;19717;42.614;23.418;2023-04-28T00:25:55;0.70;;;0.70;;
33357;SDS011;19717;42.614;23.418;2023-04-28T00:28:21;1.88;;;0.90;;
33357;SDS011;19717;42.614;23.418;2023-04-28T00:30:47;1.05;;;0.88;;
33357;SDS011;19717;42.614;23.418;2023-04-28T00:33:13;1.02;;;0.80;;
33357;SDS011;19717;42.614;23.418;2023-04-28T00:35:39;0.90;;;0.90;;
33357;SDS011;19717;42.614;23.418;2023-04-28T00:38:06;1.30;;;0.90;;
33357;SDS011;19717;42.614;23.418;2023-04-28T00:40:36;0.70;;;0.70;;
33357;SDS011;19717;42.614;23.418;2023-04-28T00:43:02;0.90;;;0.90;;
33357;SDS011;19717;42.614;23.418;2023-04-28T00:45:28;1.10;;;1.10;;
33357;SDS011;19717;42.614;23.418;2023-04-28T00:47:55;0.88;;;0.88;;
33357;SDS011;19717;42.614;23.418;2023-04-28T00:50:21;0.80;;;0.80;;
33357;SDS011;19717;42.614;23.418;2023-04-28T00:52:48;1.52;;;0.80;;
33357;SDS011;19717;42.614;23.418;2023-04-28T00:55:15;1.20;;;0.90;;
33357;SDS011;19717;42.614;23.418;2023-04-28T00:57:41;1.67;;;1.15;;
33357;SDS011;19717;42.614;23.418;2023-04-28T01:00:08;0.80;;;0.80;;
33357;SDS011;19717;42.614;23.418;2023-04-28T01:02:34;0.88;;;0.88;;
33357;SDS011;19717;42.614;23.418;2023-04-28T01:05:01;1.00;;;0.93;;
33357;SDS011;19717;42.614;23.418;2023-04-28T01:07:27;0.75;;;0.75;;
33357;SDS011;19717;42.614;23.418;2023-04-28T01:09:53;1.13;;;0.90;;
33357;SDS011;19717;42.614;23.418;2023-04-28T01:12:20;0.90;;;0.90;;
33357;SDS011;19717;42.614;23.418;2023-04-28T01:14:46;1.13;;;1.02;;
33357;SDS011;19717;42.614;23.418;2023-04-28T01:17:12;0.80;;;0.80;;
33357;SDS011;19717;42.614;23.418;2023-04-28T01:19:39;1.00;;;1.00;;
33357;SDS011;19717;42.614;23.418;2023-04-28T01:22:05;0.73;;;0.73;;
33357;SDS011;19717;42.614;23.418;2023-04-28T01:24:31;0.70;;;0.70;;
33357;SDS011;19717;42.614;23.418;2023-04-28T01:26:57;0.80;;;0.80;;
33357;SDS011;19717;42.614;23.418;2023-04-28T01:29:23;1.30;;;1.20;;
33357;SDS011;19717;42.614;23.418;2023-04-28T01:31:49;0.82;;;0.82;;
33357;SDS011;19717;42.614;23.418;2023-04-28T01:34:15;1.25;;;0.90;;
33357;SDS011;19717;42.614;23.418;2023-04-28T01:36:41;0.80;;;0.80;;
33357;SDS011;19717;42.614;23.418;2023-04-28T01:39:07;1.73;;;1.00;;
33357;SDS011;19717;42.614;23.418;2023-04-28T01:41:33;0.80;;;0.80;;
33357;SDS011;19717;42.614;23.418;2023-04-28T01:43:59;0.90;;;0.90;;
33357;SDS011;19717;42.614;23.418;2023-04-28T01:46:25;0.80;;;0.80;;
33357;SDS011;19717;42.614;23.418;2023-04-28T01:48:52;1.08;;;0.98;;
33357;SDS011;19717;42.614;23.418;2023-04-28T01:51:18;0.90;;;0.90;;
33357;SDS011;19717;42.614;23.418;2023-04-28T01:53:44;0.80;;;0.80;;
33357;SDS011;19717;42.614;23.418;2023-04-28T01:56:10;1.08;;;1.08;;
33357;SDS011;19717;42.614;23.418;2023-04-28T01:58:36;1.15;;;1.05;;
33357;SDS011;19717;42.614;23.418;2023-04-28T02:01:02;0.93;;;0.93;;
33357;SDS011;19717;42.614;23.418;2023-04-28T02:03:28;0.88;;;0.88;;
33357;SDS011;19717;42.614;23.418;2023-04-28T02:05:55;4.10;;;0.90;;
33357;SDS011;19717;42.614;23.418;2023-04-28T02:08:21;0.98;;;0.98;;
33357;SDS011;19717;42.614;23.418;2023-04-28T02:10:47;1.13;;;1.02;;
33357;SDS011;19717;42.614;23.418;2023-04-28T02:13:13;0.90;;;0.90;;
33357;SDS011;19717;42.614;23.418;2023-04-28T02:15:41;0.90;;;0.90;;
33357;SDS011;19717;42.614;23.418;2023-04-28T02:18:07;0.80;;;0.80;;
33357;SDS011;19717;42.614;23.418;2023-04-28T02:20:33;1.23;;;1.10;;
33357;SDS011;19717;42.614;23.418;2023-04-28T02:22:59;1.00;;;0.90;;
33357;SDS011;19717;42.614;23.418;2023-04-28T02:25:25;1.13;;;0.98;;
33357;SDS011;19717;42.614;23.418;2023-04-28T02:27:51;1.00;;;0.88;;
33357;SDS011;19717;42.614;23.418;2023-04-28T02:30:18;0.80;;;0.80;;
33357;SDS011;19717;42.614;23.418;2023-04-28T02:32:44;1.17;;;1.00;;
33357;SDS011;19717;42.614;23.418;2023-04-28T02:35:10;0.88;;;0.88;;
33357;SDS011;19717;42.614;23.418;2023-04-28T02:37:36;0.98;;;0.98;;
33357;SDS011;19717;42.614;23.418;2023-04-28T02:40:02;0.90;;;0.90;;
33357;SDS011;19717;42.614;23.418;2023-04-28T02:42:28;1.05;;;0.90;;
33357;SDS011;19717;42.614;23.418;2023-04-28T02:44:54;0.90;;;0.90;;
33357;SDS011;19717;42.614;23.418;2023-04-28T02:47:20;0.88;;;0.88;;
33357;SDS011;19717;42.614;23.418;2023-04-28T02:49:47;2.40;;;1.10;;
33357;SDS011;19717;42.614;23.418;2023-04-28T02:52:13;1.40;;;1.10;;
33357;SDS011;19717;42.614;23.418;2023-04-28T02:54:39;1.13;;;1.10;;
33357;SDS011;19717;42.614;23.418;2023-04-28T02:57:05;1.00;;;1.00;;
33357;SDS011;19717;42.614;23.418;2023-04-28T02:59:31;1.00;;;1.00;;
33357;SDS011;19717;42.614;23.418;2023-04-28T03:01:57;1.00;;;1.00;;
33357;SDS011;19717;42.614;23.418;2023-04-28T03:04:23;0.77;;;0.77;;
33357;SDS011;19717;42.614;23.418;2023-04-28T03:06:49;1.05;;;1.00;;
33357;SDS011;19717;42.614;23.418;2023-04-28T03:09:15;0.80;;;0.80;;
33357;SDS011;19717;42.614;23.418;2023-04-28T03:11:41;1.17;;;0.93;;
33357;SDS011;19717;42.614;23.418;2023-04-28T03:14:07;1.00;;;1.00;;
33357;SDS011;19717;42.614;23.418;2023-04-28T03:16:33;1.23;;;0.80;;
33357;SDS011;19717;42.614;23.418;2023-04-28T03:19:00;1.10;;;1.00;;
33357;SDS011;19717;42.614;23.418;2023-04-28T03:21:26;0.90;;;0.90;;
33357;SDS011;19717;42.614;23.418;2023-04-28T03:23:53;0.80;;;0.80;;
33357;SDS011;19717;42.614;23.418;2023-04-28T03:26:19;0.80;;;0.80;;
33357;SDS011;19717;42.614;23.418;2023-04-28T03:28:45;1.27;;;1.17;;
33357;SDS011;19717;42.614;23.418;2023-04-28T03:31:11;0.90;;;0.90;;
33357;SDS011;19717;42.614;23.418;2023-04-28T03:33:37;1.00;;;1.00;;
33357;SDS011;19717;42.614;23.418;2023-04-28T03:36:03;1.20;;;1.20;;
33357;SDS011;19717;42.614;23.418;2023-04-28T03:38:29;0.80;;;0.80;;
33357;SDS011;19717;42.614;23.418;2023-04-28T03:40:55;0.85;;;0.82;;
33357;SDS011;19717;42.614;23.418;2023-04-28T03:43:21;1.23;;;1.13;;
33357;SDS011;19717;42.614;23.418;2023-04-28T03:45:47;1.00;;;1.00;;
33357;SDS011;19717;42.614;23.418;2023-04-28T03:48:14;0.98;;;0.98;;
33357;SDS011;19717;42.614;23.418;2023-04-28T03:50:40;1.08;;;1.08;;
33357;SDS011;19717;42.614;23.418;2023-04-28T03:53:07;1.65;;;1.10;;
33357;SDS011;19717;42.614;23.418;2023-04-28T03:55:33;0.90;;;0.90;;
33357;SDS011;19717;42.614;23.418;2023-04-28T03:57:59;0.90;;;0.90;;
33357;SDS011;19717;42.614;23.418;2023-04-28T04:00:25;1.05;;;1.05;;
33357;SDS011;19717;42.614;23.418;2023-04-28T04:02:51;1.27;;;1.10;;
33357;SDS011;19717;42.614;23.418;2023-04-28T04:05:17;1.38;;;1.05;;
33357;SDS011;19717;42.614;23.418;2023-04-28T04:07:43;1.08;;;1.00;;
33357;SDS011;19717;42.614;23.418;2023-04-28T04:10:09;1.10;;;1.10;;
33357;SDS011;19717;42.614;23.418;2023-04-28T04:12:36;1.15;;;1.10;;
33357;SDS011;19717;42.614;23.418;2023-04-28T04:15:03;1.20;;;1.10;;
33357;SDS011;19717;42.614;23.418;2023-04-28T04:17:29;2.80;;;1.15;;
33357;SDS011;19717;42.614;23.418;2023-04-28T04:19:55;0.90;;;0.90;;
33357;SDS011;19717;42.614;23.418;2023-04-28T04:22:21;1.10;;;1.08;;
33357;SDS011;19717;42.614;23.418;2023-04-28T04:24:47;2.05;;;1.40;;
33357;SDS011;19717;42.614;23.418;2023-04-28T04:27:13;2.45;;;2.20;;
33357;SDS011;19717;42.614;23.418;2023-04-28T04:29:39;3.03;;;2.72;;
33357;SDS011;19717;42.614;23.418;2023-04-28T04:32:09;2.08;;;1.95;;
33357;SDS011;19717;42.614;23.418;2023-04-28T04:34:35;1.40;;;1.30;;
33357;SDS011;19717;42.614;23.418;2023-04-28T04:37:01;0.80;;;0.80;;
33357;SDS011;19717;42.614;23.418;2023-04-28T04:39:27;1.00;;;1.00;;
33357;SDS011;19717;42.614;23.418;2023-04-28T04:41:53;1.00;;;1.00;;
33357;SDS011;19717;42.614;23.418;2023-04-28T04:44:19;1.25;;;1.15;;
33357;SDS011;19717;42.614;23.418;2023-04-28T04:46:46;1.70;;;1.30;;
33357;SDS011;19717;42.614;23.418;2023-04-28T04:49:12;1.35;;;1.25;;
33357;SDS011;19717;42.614;23.418;2023-04-28T04:51:38;0.80;;;0.80;;
33357;SDS011;19717;42.614;23.418;2023-04-28T04:54:04;1.30;;;1.00;;
33357;SDS011;19717;42.614;23.418;2023-04-28T04:56:31;1.05;;;1.05;;
33357;SDS011;19717;42.614;23.418;2023-04-28T04:58:57;1.13;;;0.98;;
33357;SDS011;19717;42.614;23.418;2023-04-28T05:01:23;1.00;;;0.93;;
33357;SDS011;19717;42.614;23.418;2023-04-28T05:03:49;0.80;;;0.80;;
33357;SDS011;19717;42.614;23.418;2023-04-28T05:06:15;0.73;;;0.73;;
33357;SDS011;19717;42.614;23.418;2023-04-28T05:08:41;0.70;;;0.70;;
33357;SDS011;19717;42.614;23.418;2023-04-28T05:11:07;1.00;;;1.00;;
33357;SDS011;19717;42.614;23.418;2023-04-28T05:13:33;0.80;;;0.80;;
33357;SDS011;19717;42.614;23.418;2023-04-28T05:15:59;1.02;;;0.93;;
33357;SDS011;19717;42.614;23.418;2023-04-28T05:18:25;1.85;;;0.80;;
33357;SDS011;19717;42.614;23.418;2023-04-28T05:20:51;0.80;;;0.80;;
33357;SDS011;19717;42.614;23.418;2023-04-28T05:23:17;0.80;;;0.80;;
33357;SDS011;19717;42.614;23.418;2023-04-28T05:25:43;2.05;;;0.98;;
33357;SDS011;19717;42.614;23.418;2023-04-28T05:28:09;1.35;;;0.80;;
33357;SDS011;19717;42.614;23.418;2023-04-28T05:30:37;1.00;;;1.00;;
33357;SDS011;19717;42.614;23.418;2023-04-28T05:33:03;1.00;;;0.90;;
33357;SDS011;19717;42.614;23.418;2023-04-28T05:35:29;1.00;;;1.00;;
33357;SDS011;19717;42.614;23.418;2023-04-28T05:37:55;0.80;;;0.80;;
33357;SDS011;19717;42.614;23.418;2023-04-28T05:40:22;0.82;;;0.82;;
33357;SDS011;19717;42.614;23.418;2023-04-28T05:42:48;2.50;;;0.90;;
33357;SDS011;19717;42.614;23.418;2023-04-28T05:45:14;2.33;;;0.90;;
33357;SDS011;19717;42.614;23.418;2023-04-28T05:47:40;0.80;;;0.80;;
33357;SDS011;19717;42.614;23.418;2023-04-28T05:50:06;0.90;;;0.90;;
33357;SDS011;19717;42.614;23.418;2023-04-28T05:52:33;1.17;;;1.08;;
33357;SDS011;19717;42.614;23.418;2023-04-28T05:54:59;1.13;;;1.00;;
33357;SDS011;19717;42.614;23.418;2023-04-28T05:57:25;1.00;;;1.00;;
33357;SDS011;19717;42.614;23.418;2023-04-28T05:59:51;1.10;;;1.00;;
33357;SDS011;19717;42.614;23.418;2023-04-28T06:02:17;3.22;;;0.80;;
33357;SDS011;19717;42.614;23.418;2023-04-28T06:04:43;4.10;;;1.10;;
33357;SDS011;19717;42.614;23.418;2023-04-28T06:07:09;1.33;;;1.10;;
33357;SDS011;19717;42.614;23.418;2023-04-28T06:09:35;0.90;;;0.90;;
33357;SDS011;19717;42.614;23.418;2023-04-28T06:12:01;1.02;;;0.93;;
33357;SDS011;19717;42.614;23.418;2023-04-28T06:14:27;2.90;;;0.80;;
33357;SDS011;19717;42.614;23.418;2023-04-28T06:16:54;0.88;;;0.88;;
33357;SDS011;19717;42.614;23.418;2023-04-28T06:19:20;2.10;;;1.05;;
33357;SDS011;19717;42.614;23.418;2023-04-28T06:21:46;2.88;;;1.90;;
33357;SDS011;19717;42.614;23.418;2023-04-28T06:24:14;2.28;;;1.75;;
33357;SDS011;19717;42.614;23.418;2023-04-28T06:26:40;1.90;;;1.48;;
33357;SDS011;19717;42.614;23.418;2023-04-28T06:29:06;2.90;;;2.22;;
33357;SDS011;19717;42.614;23.418;2023-04-28T06:31:32;2.55;;;2.35;;
33357;SDS011;19717;42.614;23.418;2023-04-28T06:33:58;2.35;;;1.30;;
33357;SDS011;19717;42.614;23.418;2023-04-28T06:36:25;2.08;;;1.88;;
33357;SDS011;19717;42.614;23.418;2023-04-28T06:38:52;1.80;;;1.23;;
33357;SDS011;19717;42.614;23.418;2023-04-28T06:41:18;3.28;;;2.25;;
33357;SDS011;19717;42.614;23.418;2023-04-28T06:43:44;0.90;;;0.90;;
33357;SDS011;19717;42.614;23.418;2023-04-28T06:46:10;2.65;;;2.03;;
33357;SDS011;19717;42.614;23.418;2023-04-28T06:48:36;1.60;;;1.38;;
33357;SDS011;19717;42.614;23.418;2023-04-28T06:51:03;5.68;;;3.28;;
33357;SDS011;19717;42.614;23.418;2023-04-28T06:53:29;4.78;;;3.15;;
33357;SDS011;19717;42.614;23.418;2023-04-28T06:55:55;5.97;;;4.03;;
33357;SDS011;19717;42.614;23.418;2023-04-28T06:58:21;3.72;;;2.35;;
33357;SDS011;19717;42.614;23.418;2023-04-28T07:00:47;1.30;;;1.20;;
33357;SDS011;19717;42.614;23.418;2023-04-28T07:03:13;1.45;;;1.35;;
33357;SDS011;19717;42.614;23.418;2023-04-28T07:05:39;1.10;;;0.90;;
33357;SDS011;19717;42.614;23.418;2023-04-28T07:08:05;1.25;;;0.80;;
33357;SDS011;19717;42.614;23.418;2023-04-28T07:10:31;0.70;;;0.70;;
33357;SDS011;19717;42.614;23.418;2023-04-28T07:12:57;0.80;;;0.80;;
33357;SDS011;19717;42.614;23.418;2023-04-28T07:15:23;0.90;;;0.90;;
33357;SDS011;19717;42.614;23.418;2023-04-28T07:17:50;1.05;;;0.80;;
33357;SDS011;19717;42.614;23.418;2023-04-28T07:20:16;2.65;;;0.70;;
33357;SDS011;19717;42.614;23.418;2023-04-28T07:22:42;0.95;;;0.80;;
33357;SDS011;19717;42.614;23.418;2023-04-28T07:25:08;0.98;;;0.98;;
33357;SDS011;19717;42.614;23.418;2023-04-28T07:27:34;0.88;;;0.88;;
33357;SDS011;19717;42.614;23.418;2023-04-28T07:30:00;0.88;;;0.88;;
33357;SDS011;19717;42.614;23.418;2023-04-28T07:32:26;0.75;;;0.75;;
33357;SDS011;19717;42.614;23.418;2023-04-28T07:34:55;1.05;;;0.90;;
33357;SDS011;19717;42.614;23.418;2023-04-28T07:37:21;0.70;;;0.70;;
33357;SDS011;19717;42.614;23.418;2023-04-28T07:39:47;0.80;;;0.80;;
33357;SDS011;19717;42.614;23.418;2023-04-28T07:42:14;0.90;;;0.90;;
33357;SDS011;19717;42.614;23.418;2023-04-28T07:44:40;0.88;;;0.88;;
33357;SDS011;19717;42.614;23.418;2023-04-28T07:47:06;0.90;;;0.90;;
33357;SDS011;19717;42.614;23.418;2023-04-28T07:49:32;1.38;;;0.90;;
33357;SDS011;19717;42.614;23.418;2023-04-28T07:51:58;0.75;;;0.75;;
33357;SDS011;19717;42.614;23.418;2023-04-28T07:54:24;0.70;;;0.70;;
33357;SDS011;19717;42.614;23.418;2023-04-28T07:56:50;0.80;;;0.80;;
33357;SDS011;19717;42.614;23.418;2023-04-28T07:59:16;1.50;;;0.90;;
33357;SDS011;19717;42.614;23.418;2023-04-28T08:01:42;0.70;;;0.70;;
33357;SDS011;19717;42.614;23.418;2023-04-28T08:04:08;0.75;;;0.75;;
33357;SDS011;19717;42.614;23.418;2023-04-28T08:06:35;0.77;;;0.70;;
33357;SDS011;19717;42.614;23.418;2023-04-28T08:09:01;0.70;;;0.70;;
33357;SDS011;19717;42.614;23.418;2023-04-28T08:11:29;0.80;;;0.80;;
33357;SDS011;19717;42.614;23.418;2023-04-28T08:13:55;0.80;;;0.80;;
33357;SDS011;19717;42.614;23.418;2023-04-28T08:16:25;0.73;;;0.73;;
33357;SDS011;19717;42.614;23.418;2023-04-28T08:18:51;2.65;;;0.90;;
33357;SDS011;19717;42.614;23.418;2023-04-28T08:21:17;0.73;;;0.73;;
33357;SDS011;19717;42.614;23.418;2023-04-28T08:23:43;0.80;;;0.80;;
33357;SDS011;19717;42.614;23.418;2023-04-28T08:26:10;0.70;;;0.70;;
33357;SDS011;19717;42.614;23.418;2023-04-28T08:28:36;0.80;;;0.80;;
33357;SDS011;19717;42.614;23.418;2023-04-28T08:31:03;0.70;;;0.70;;
33357;SDS011;19717;42.614;23.418;2023-04-28T08:33:30;0.70;;;0.70;;
33357;SDS011;19717;42.614;23.418;2023-04-28T08:35:56;2.05;;;0.90;;
33357;SDS011;19717;42.614;23.418;2023-04-28T08:38:22;0.80;;;0.80;;
33357;SDS011;19717;42.614;23.418;2023-04-28T08:40:49;0.80;;;0.80;;
33357;SDS011;19717;42.614;23.418;2023-04-28T08:43:15;0.80;;;0.80;;
33357;SDS011;19717;42.614;23.418;2023-04-28T08:45:42;0.80;;;0.80;;
33357;SDS011;19717;42.614;23.418;2023-04-28T08:48:19;0.90;;;0.88;;
33357;SDS011;19717;42.614;23.418;2023-04-28T08:50:52;0.80;;;0.80;;
33357;SDS011;19717;42.614;23.418;2023-04-28T08:53:22;0.80;;;0.77;;
33357;SDS011;19717;42.614;23.418;2023-04-28T08:55:53;0.70;;;0.70;;
33357;SDS011;19717;42.614;23.418;2023-04-28T08:58:23;0.68;;;0.63;;
33357;SDS011;19717;42.614;23.418;2023-04-28T09:00:50;0.85;;;0.70;;
33357;SDS011;19717;42.614;23.418;2023-04-28T09:03:19;0.75;;;0.75;;
33357;SDS011;19717;42.614;23.418;2023-04-28T09:05:49;0.70;;;0.70;;
33357;SDS011;19717;42.614;23.418;2023-04-28T09:08:17;0.90;;;0.90;;
33357;SDS011;19717;42.614;23.418;2023-04-28T09:10:43;1.15;;;0.88;;
33357;SDS011;19717;42.614;23.418;2023-04-28T09:13:22;0.82;;;0.80;;
33357;SDS011;19717;42.614;23.418;2023-04-28T09:15:49;0.80;;;0.80;;
33357;SDS011;19717;42.614;23.418;2023-04-28T09:18:16;0.80;;;0.80;;
33357;SDS011;19717;42.614;23.418;2023-04-28T09:20:42;0.73;;;0.70;;
33357;SDS011;19717;42.614;23.418;2023-04-28T09:23:13;1.83;;;0.70;;
33357;SDS011;19717;42.614;23.418;2023-04-28T09:25:39;0.70;;;0.70;;
33357;SDS011;19717;42.614;23.418;2023-04-28T09:28:18;1.30;;;0.90;;
33357;SDS011;19717;42.614;23.418;2023-04-28T09:30:46;2.88;;;1.67;;
33357;SDS011;19717;42.614;23.418;2023-04-28T09:33:12;4.22;;;1.70;;
33357;SDS011;19717;42.614;23.418;2023-04-28T09:35:38;1.75;;;0.60;;
33357;SDS011;19717;42.614;23.418;2023-04-28T09:38:05;1.17;;;0.88;;
33357;SDS011;19717;42.614;23.418;2023-04-28T09:40:31;2.38;;;0.80;;
33357;SDS011;19717;42.614;23.418;2023-04-28T09:42:58;1.38;;;0.80;;
33357;SDS011;19717;42.614;23.418;2023-04-28T09:45:24;1.00;;;0.70;;
33357;SDS011;19717;42.614;23.418;2023-04-28T09:47:51;0.80;;;0.65;;
33357;SDS011;19717;42.614;23.418;2023-04-28T09:50:17;0.63;;;0.63;;
33357;SDS011;19717;42.614;23.418;2023-04-28T09:52:44;0.70;;;0.70;;
33357;SDS011;19717;42.614;23.418;2023-04-28T09:55:12;0.80;;;0.80;;
33357;SDS011;19717;42.614;23.418;2023-04-28T09:57:39;0.73;;;0.73;;
33357;SDS011;19717;42.614;23.418;2023-04-28T10:00:06;0.80;;;0.80;;
33357;SDS011;19717;42.614;23.418;2023-04-28T10:02:34;0.65;;;0.65;;
33357;SDS011;19717;42.614;23.418;2023-04-28T10:05:00;2.92;;;0.80;;
33357;SDS011;19717;42.614;23.418;2023-04-28T10:07:27;1.17;;;0.65;;
33357;SDS011;19717;42.614;23.418;2023-04-28T10:09:55;1.80;;;0.70;;
33357;SDS011;19717;42.614;23.418;2023-04-28T10:12:24;0.73;;;0.63;;
33357;SDS011;19717;42.614;23.418;2023-04-28T10:14:50;0.60;;;0.60;;
33357;SDS011;19717;42.614;23.418;2023-04-28T10:17:18;0.80;;;0.70;;
33357;SDS011;19717;42.614;23.418;2023-04-28T10:19:45;0.85;;;0.70;;
33357;SDS011;19717;42.614;23.418;2023-04-28T10:27:19;0.98;;;0.60;;
33357;SDS011;19717;42.614;23.418;2023-04-28T10:29:45;0.60;;;0.60;;
33357;SDS011;19717;42.614;23.418;2023-04-28T10:32:16;0.63;;;0.63;;
33357;SDS011;19717;42.614;23.418;2023-04-28T10:34:42;0.75;;;0.60;;
33357;SDS011;19717;42.614;23.418;2023-04-28T10:37:08;0.55;;;0.45;;
33357;SDS011;19717;42.614;23.418;2023-04-28T10:39:35;0.60;;;0.60;;
33357;SDS011;19717;42.614;23.418;2023-04-28T10:42:01;0.60;;;0.60;;
33357;SDS011;19717;42.614;23.418;2023-04-28T10:47:03;0.55;;;0.55;;
33357;SDS011;19717;42.614;23.418;2023-04-28T10:57:54;0.60;;;0.60;;
33357;SDS011;19717;42.614;23.418;2023-04-28T11:00:33;0.52;;;0.50;;
33357;SDS011;19717;42.614;23.418;2023-04-28T11:02:59;0.60;;;0.60;;
33357;SDS011;19717;42.614;23.418;2023-04-28T11:05:25;3.95;;;0.60;;
33357;SDS011;19717;42.614;23.418;2023-04-28T11:13:25;0.68;;;0.68;;
33357;SDS011;19717;42.614;23.418;2023-04-28T11:16:04;0.50;;;0.50;;
33357;SDS011;19717;42.614;23.418;2023-04-28T11:19:04;1.10;;;0.70;;
33357;SDS011;19717;42.614;23.418;2023-04-28T11:21:24;0.60;;;0.60;;
33357;SDS011;19717;42.614;23.418;2023-04-28T11:23:52;0.55;;;0.55;;
33357;SDS011;19717;42.614;23.418;2023-04-28T11:26:18;1.60;;;0.60;;
33357;SDS011;19717;42.614;23.418;2023-04-28T11:31:15;0.70;;;0.60;;
33357;SDS011;19717;42.614;23.418;2023-04-28T11:33:48;0.60;;;0.60;;
33357;SDS011;19717;42.614;23.418;2023-04-28T11:36:24;0.50;;;0.50;;
33357;SDS011;19717;42.614;23.418;2023-04-28T11:38:50;1.05;;;0.60;;
33357;SDS011;19717;42.614;23.418;2023-04-28T11:41:16;0.50;;;0.50;;
33357;SDS011;19717;42.614;23.418;2023-04-28T11:43:43;0.50;;;0.50;;
33357;SDS011;19717;42.614;23.418;2023-04-28T11:46:09;0.50;;;0.50;;
33357;SDS011;19717;42.614;23.418;2023-04-28T11:48:35;0.50;;;0.50;;
33357;SDS011;19717;42.614;23.418;2023-04-28T11:51:01;0.70;;;0.70;;
33357;SDS011;19717;42.614;23.418;2023-04-28T11:53:43;2.20;;;0.60;;
33357;SDS011;19717;42.614;23.418;2023-04-28T11:58:37;0.63;;;0.55;;
33357;SDS011;19717;42.614;23.418;2023-04-28T12:01:07;0.50;;;0.50;;
33357;SDS011;19717;42.614;23.418;2023-04-28T12:03:46;0.65;;;0.60;;
33357;SDS011;19717;42.614;23.418;2023-04-28T12:06:16;0.57;;;0.57;;
33357;SDS011;19717;42.614;23.418;2023-04-28T12:08:45;0.50;;;0.50;;
33357;SDS011;19717;42.614;23.418;2023-04-28T12:11:11;0.50;;;0.50;;
33357;SDS011;19717;42.614;23.418;2023-04-28T12:13:38;0.50;;;0.50;;
33357;SDS011;19717;42.614;23.418;2023-04-28T12:16:05;0.50;;;0.50;;
33357;SDS011;19717;42.614;23.418;2023-04-28T12:18:31;0.50;;;0.50;;
33357;SDS011;19717;42.614;23.418;2023-04-28T12:20:58;0.63;;;0.50;;
33357;SDS011;19717;42.614;23.418;2023-04-28T12:23:30;1.75;;;0.60;;
33357;SDS011;19717;42.614;23.418;2023-04-28T12:25:56;0.60;;;0.60;;
33357;SDS011;19717;42.614;23.418;2023-04-28T12:28:22;0.50;;;0.50;;
33357;SDS011;19717;42.614;23.418;2023-04-28T12:30:50;0.50;;;0.50;;
33357;SDS011;19717;42.614;23.418;2023-04-28T12:33:28;0.50;;;0.50;;
33357;SDS011;19717;42.614;23.418;2023-04-28T12:35:57;0.55;;;0.55;;
33357;SDS011;19717;42.614;23.418;2023-04-28T12:38:23;0.65;;;0.60;;
33357;SDS011;19717;42.614;23.418;2023-04-28T12:40:50;0.60;;;0.60;;
33357;SDS011;19717;42.614;23.418;2023-04-28T12:43:16;0.63;;;0.60;;
33357;SDS011;19717;42.614;23.418;2023-04-28T12:45:42;0.50;;;0.50;;
33357;SDS011;19717;42.614;23.418;2023-04-28T12:48:08;0.80;;;0.60;;
33357;SDS011;19717;42.614;23.418;2023-04-28T12:50:34;1.98;;;0.60;;
33357;SDS011;19717;42.614;23.418;2023-04-28T12:53:00;0.40;;;0.40;;
33357;SDS011;19717;42.614;23.418;2023-04-28T12:55:27;0.50;;;0.50;;
33357;SDS011;19717;42.614;23.418;2023-04-28T12:57:54;0.50;;;0.50;;
33357;SDS011;19717;42.614;23.418;2023-04-28T13:00:20;0.60;;;0.60;;
33357;SDS011;19717;42.614;23.418;2023-04-28T13:02:47;1.25;;;0.50;;
33357;SDS011;19717;42.614;23.418;2023-04-28T13:05:13;0.80;;;0.60;;
33357;SDS011;19717;42.614;23.418;2023-04-28T13:07:40;1.58;;;0.68;;
33357;SDS011;19717;42.614;23.418;2023-04-28T13:10:06;0.43;;;0.43;;
33357;SDS011;19717;42.614;23.418;2023-04-28T13:12:33;0.40;;;0.40;;
33357;SDS011;19717;42.614;23.418;2023-04-28T13:15:02;0.52;;;0.52;;
33357;SDS011;19717;42.614;23.418;2023-04-28T13:17:28;0.50;;;0.50;;
33357;SDS011;19717;42.614;23.418;2023-04-28T13:19:54;0.50;;;0.50;;
33357;SDS011;19717;42.614;23.418;2023-04-28T13:22:20;0.47;;;0.47;;
33357;SDS011;19717;42.614;23.418;2023-04-28T13:24:47;2.08;;;0.55;;
33357;SDS011;19717;42.614;23.418;2023-04-28T13:27:13;0.60;;;0.60;;
33357;SDS011;19717;42.614;23.418;2023-04-28T13:29:39;0.50;;;0.50;;
33357;SDS011;19717;42.614;23.418;2023-04-28T13:32:05;0.50;;;0.50;;
33357;SDS011;19717;42.614;23.418;2023-04-28T13:34:31;0.40;;;0.40;;
33357;SDS011;19717;42.614;23.418;2023-04-28T13:36:57;1.33;;;0.50;;
33357;SDS011;19717;42.614;23.418;2023-04-28T13:39:23;0.40;;;0.40;;
33357;SDS011;19717;42.614;23.418;2023-04-28T13:41:49;0.60;;;0.60;;
33357;SDS011;19717;42.614;23.418;2023-04-28T13:44:15;0.45;;;0.45;;
33357;SDS011;19717;42.614;23.418;2023-04-28T13:46:42;0.50;;;0.50;;
33357;SDS011;19717;42.614;23.418;2023-04-28T13:49:08;0.57;;;0.52;;
33357;SDS011;19717;42.614;23.418;2023-04-28T13:51:34;0.40;;;0.40;;
33357;SDS011;19717;42.614;23.418;2023-04-28T13:54:00;0.50;;;0.50;;
33357;SDS011;19717;42.614;23.418;2023-04-28T13:56:31;0.50;;;0.50;;
33357;SDS011;19717;42.614;23.418;2023-04-28T13:58:57;1.75;;;0.50;;
33357;SDS011;19717;42.614;23.418;2023-04-28T14:01:23;0.50;;;0.50;;
33357;SDS011;19717;42.614;23.418;2023-04-28T14:03:49;0.93;;;0.60;;
33357;SDS011;19717;42.614;23.418;2023-04-28T14:06:16;0.80;;;0.52;;
33357;SDS011;19717;42.614;23.418;2023-04-28T14:08:42;0.50;;;0.50;;
33357;SDS011;19717;42.614;23.418;2023-04-28T14:11:08;0.60;;;0.60;;
33357;SDS011;19717;42.614;23.418;2023-04-28T14:13:35;1.38;;;0.60;;
33357;SDS011;19717;42.614;23.418;2023-04-28T14:16:01;0.63;;;0.50;;
33357;SDS011;19717;42.614;23.418;2023-04-28T14:18:27;0.55;;;0.55;;
33357;SDS011;19717;42.614;23.418;2023-04-28T14:20:53;0.52;;;0.52;;
33357;SDS011;19717;42.614;23.418;2023-04-28T14:23:20;0.75;;;0.60;;
33357;SDS011;19717;42.614;23.418;2023-04-28T14:25:46;0.45;;;0.45;;
33357;SDS011;19717;42.614;23.418;2023-04-28T14:28:12;0.55;;;0.50;;
33357;SDS011;19717;42.614;23.418;2023-04-28T14:30:38;0.63;;;0.60;;
33357;SDS011;19717;42.614;23.418;2023-04-28T14:33:05;1.80;;;0.52;;
33357;SDS011;19717;42.614;23.418;2023-04-28T14:35:32;0.50;;;0.50;;
33357;SDS011;19717;42.614;23.418;2023-04-28T14:37:59;0.50;;;0.50;;
33357;SDS011;19717;42.614;23.418;2023-04-28T14:40:25;0.50;;;0.50;;
33357;SDS011;19717;42.614;23.418;2023-04-28T14:42:51;0.50;;;0.50;;
33357;SDS011;19717;42.614;23.418;2023-04-28T14:45:17;0.60;;;0.60;;
33357;SDS011;19717;42.614;23.418;2023-04-28T14:47:44;0.50;;;0.50;;
33357;SDS011;19717;42.614;23.418;2023-04-28T14:50:10;0.50;;;0.50;;
33357;SDS011;19717;42.614;23.418;2023-04-28T14:52:36;0.50;;;0.50;;
33357;SDS011;19717;42.614;23.418;2023-04-28T14:55:02;0.52;;;0.52;;
33357;SDS011;19717;42.614;23.418;2023-04-28T14:57:29;0.57;;;0.57;;